sensor_id;sensor_type;location;lat;lon;timestamp;pressure;altitude;pressure_sealevel;temperature;humidity
66880;BME280;53789;51.392;10.234;2023-03-21T00:00:19;98355.47;;;7.54;72.26
66880;BME280;53789;51.392;10.234;2023-03-21T00:00:40;98360.09;;;7.54;72.68
66880;BME280;53789;51.392;10.234;2023-03-21T00:01:01;98355.47;;;7.54;72.33
66880;BME280;53789;51.392;10.234;2023-03-21T00:01:21;98357.09;;;7.55;72.75
66880;BME280;53789;51.392;10.234;2023-03-21T00:01:41;98348.88;;;7.55;72.35
66880;BME280;53789;51.392;10.234;2023-03-21T00:02:02;98361.75;;;7.55;71.71
66880;BME280;53789;51.392;10.234;2023-03-21T00:02:22;98358.22;;;7.54;72.96
66880;BME280;53789;51.392;10.234;2023-03-21T00:02:43;98357.38;;;7.54;72.16
66880;BME280;53789;51.392;10.234;2023-03-21T00:03:03;98350.28;;;7.53;72.38
66880;BME280;53789;51.392;10.234;2023-03-21T00:03:25;98362.31;;;7.52;72.13
66880;BME280;53789;51.392;10.234;2023-03-21T00:03:45;98354.91;;;7.52;72.51
66880;BME280;53789;51.392;10.234;2023-03-21T00:04:05;98354.13;;;7.52;72.52
66880;BME280;53789;51.392;10.234;2023-03-21T00:04:26;98354.13;;;7.52;72.85
66880;BME280;53789;51.392;10.234;2023-03-21T00:04:46;98348.94;;;7.50;72.10
66880;BME280;53789;51.392;10.234;2023-03-21T00:05:07;98359.59;;;7.52;72.76
66880;BME280;53789;51.392;10.234;2023-03-21T00:05:27;98353.31;;;7.51;71.98
66880;BME280;53789;51.392;10.234;2023-03-21T00:05:48;98348.94;;;7.50;72.57
66880;BME280;53789;51.392;10.234;2023-03-21T00:06:10;98357.94;;;7.51;72.24
66880;BME280;53789;51.392;10.234;2023-03-21T00:06:31;98351.66;;;7.50;72.92
66880;BME280;53789;51.392;10.234;2023-03-21T00:06:52;98350.81;;;7.50;71.91
66880;BME280;53789;51.392;10.234;2023-03-21T00:07:12;98350.03;;;7.49;72.08
66880;BME280;53789;51.392;10.234;2023-03-21T00:07:33;98349.72;;;7.51;72.03
66880;BME280;53789;51.392;10.234;2023-03-21T00:07:53;98352.75;;;7.49;72.14
66880;BME280;53789;51.392;10.234;2023-03-21T00:08:14;98352.75;;;7.49;72.44
66880;BME280;53789;51.392;10.234;2023-03-21T00:08:35;98354.69;;;7.49;72.49
66880;BME280;53789;51.392;10.234;2023-03-21T00:08:55;98350.81;;;7.50;72.95
66880;BME280;53789;51.392;10.234;2023-03-21T00:09:16;98350.03;;;7.49;72.95
66880;BME280;53789;51.392;10.234;2023-03-21T00:09:36;98358.50;;;7.48;72.03
66880;BME280;53789;51.392;10.234;2023-03-21T00:09:56;98349.50;;;7.47;71.81
66880;BME280;53789;51.392;10.234;2023-03-21T00:10:17;98349.50;;;7.47;72.57
66880;BME280;53789;51.392;10.234;2023-03-21T00:10:37;98353.84;;;7.48;72.41
66880;BME280;53789;51.392;10.234;2023-03-21T00:11:00;98352.22;;;7.47;72.78
66880;BME280;53789;51.392;10.234;2023-03-21T00:11:20;98350.31;;;7.48;72.57
66880;BME280;53789;51.392;10.234;2023-03-21T00:11:41;98350.31;;;7.48;72.50
66880;BME280;53789;51.392;10.234;2023-03-21T00:12:01;98352.75;;;7.49;72.08
66880;BME280;53789;51.392;10.234;2023-03-21T00:12:21;98355.78;;;7.48;72.28
66880;BME280;53789;51.392;10.234;2023-03-21T00:12:42;98348.38;;;7.48;72.89
66880;BME280;53789;51.392;10.234;2023-03-21T00:13:02;98346.75;;;7.47;72.18
66880;BME280;53789;51.392;10.234;2023-03-21T00:13:23;98356.06;;;7.46;72.10
66880;BME280;53789;51.392;10.234;2023-03-21T00:13:43;98351.41;;;7.47;72.76
66880;BME280;53789;51.392;10.234;2023-03-21T00:14:03;98354.13;;;7.47;72.70
66880;BME280;53789;51.392;10.234;2023-03-21T00:14:24;98352.22;;;7.47;72.48
66880;BME280;53789;51.392;10.234;2023-03-21T00:14:44;98353.03;;;7.48;71.98
66880;BME280;53789;51.392;10.234;2023-03-21T00:15:06;98346.75;;;7.47;72.18
66880;BME280;53789;51.392;10.234;2023-03-21T00:15:27;98351.41;;;7.47;71.95
66880;BME280;53789;51.392;10.234;2023-03-21T00:15:47;98348.66;;;7.47;73.03
66880;BME280;53789;51.392;10.234;2023-03-21T00:16:11;98350.31;;;7.48;72.62
66880;BME280;53789;51.392;10.234;2023-03-21T00:16:32;98354.97;;;7.47;72.97
66880;BME280;53789;51.392;10.234;2023-03-21T00:16:52;98350.81;;;7.50;72.21
66880;BME280;53789;51.392;10.234;2023-03-21T00:17:12;98348.94;;;7.50;73.26
66880;BME280;53789;51.392;10.234;2023-03-21T00:17:33;98348.94;;;7.50;72.45
66880;BME280;53789;51.392;10.234;2023-03-21T00:17:54;98350.56;;;7.51;73.07
66880;BME280;53789;51.392;10.234;2023-03-21T00:18:17;98343.97;;;7.52;72.62
66880;BME280;53789;51.392;10.234;2023-03-21T00:18:37;98347.53;;;7.53;73.04
66880;BME280;53789;51.392;10.234;2023-03-21T00:18:58;98351.09;;;7.53;72.09
66880;BME280;53789;51.392;10.234;2023-03-21T00:19:18;98351.91;;;7.54;72.90
66880;BME280;53789;51.392;10.234;2023-03-21T00:19:38;98345.63;;;7.53;72.67
66880;BME280;53789;51.392;10.234;2023-03-21T00:19:59;98347.25;;;7.54;72.26
66880;BME280;53789;51.392;10.234;2023-03-21T00:20:20;98351.63;;;7.55;72.09
66880;BME280;53789;51.392;10.234;2023-03-21T00:20:40;98346.13;;;7.55;72.75
66880;BME280;53789;51.392;10.234;2023-03-21T00:21:04;98344.25;;;7.56;72.08
66880;BME280;53789;51.392;10.234;2023-03-21T00:21:25;98345.84;;;7.57;72.57
66880;BME280;53789;51.392;10.234;2023-03-21T00:21:45;98344.25;;;7.56;72.53
66880;BME280;53789;51.392;10.234;2023-03-21T00:22:06;98341.22;;;7.57;72.74
66880;BME280;53789;51.392;10.234;2023-03-21T00:22:27;98352.16;;;7.57;72.86
66880;BME280;53789;51.392;10.234;2023-03-21T00:22:47;98342.84;;;7.58;73.13
66880;BME280;53789;51.392;10.234;2023-03-21T00:23:07;98342.84;;;7.58;73.05
66880;BME280;53789;51.392;10.234;2023-03-21T00:23:30;98346.13;;;7.60;72.21
66880;BME280;53789;51.392;10.234;2023-03-21T00:23:50;98340.66;;;7.60;72.21
66880;BME280;53789;51.392;10.234;2023-03-21T00:24:11;98347.75;;;7.61;72.42
66880;BME280;53789;51.392;10.234;2023-03-21T00:24:31;98342.25;;;7.61;72.58
66880;BME280;53789;51.392;10.234;2023-03-21T00:24:51;98341.16;;;7.63;72.68
66880;BME280;53789;51.392;10.234;2023-03-21T00:25:11;98343.91;;;7.63;72.19
66880;BME280;53789;51.392;10.234;2023-03-21T00:25:32;98334.59;;;7.64;72.10
66880;BME280;53789;51.392;10.234;2023-03-21T00:25:53;98337.06;;;7.65;72.29
66880;BME280;53789;51.392;10.234;2023-03-21T00:26:13;98340.59;;;7.66;71.82
66880;BME280;53789;51.392;10.234;2023-03-21T00:26:34;98344.97;;;7.67;72.32
66880;BME280;53789;51.392;10.234;2023-03-21T00:26:54;98335.97;;;7.66;72.46
66880;BME280;53789;51.392;10.234;2023-03-21T00:27:14;98341.97;;;7.68;71.63
66880;BME280;53789;51.392;10.234;2023-03-21T00:27:36;98337.28;;;7.69;71.96
66880;BME280;53789;51.392;10.234;2023-03-21T00:27:56;98339.22;;;7.68;72.00
66880;BME280;53789;51.392;10.234;2023-03-21T00:28:16;98344.41;;;7.70;72.17
66880;BME280;53789;51.392;10.234;2023-03-21T00:28:38;98337.84;;;7.71;71.96
66880;BME280;53789;51.392;10.234;2023-03-21T00:28:59;98337.00;;;7.70;71.98
66880;BME280;53789;51.392;10.234;2023-03-21T00:29:19;98335.91;;;7.71;72.14
66880;BME280;53789;51.392;10.234;2023-03-21T00:29:39;98345.22;;;7.70;72.93
66880;BME280;53789;51.392;10.234;2023-03-21T00:30:00;98338.34;;;7.73;72.49
66880;BME280;53789;51.392;10.234;2023-03-21T00:30:20;98331.25;;;7.72;72.60
66880;BME280;53789;51.392;10.234;2023-03-21T00:30:40;98339.44;;;7.72;71.85
66880;BME280;53789;51.392;10.234;2023-03-21T00:31:01;98332.88;;;7.73;71.98
66880;BME280;53789;51.392;10.234;2023-03-21T00:31:21;98336.44;;;7.73;72.69
66880;BME280;53789;51.392;10.234;2023-03-21T00:31:42;98339.16;;;7.73;71.68
66880;BME280;53789;51.392;10.234;2023-03-21T00:32:02;98344.63;;;7.73;71.40
66880;BME280;53789;51.392;10.234;2023-03-21T00:32:22;98339.72;;;7.75;71.62
66880;BME280;53789;51.392;10.234;2023-03-21T00:32:45;98336.44;;;7.73;71.15
66880;BME280;53789;51.392;10.234;2023-03-21T00:33:05;98339.72;;;7.75;71.27
66880;BME280;53789;51.392;10.234;2023-03-21T00:33:26;98340.22;;;7.77;71.99
66880;BME280;53789;51.392;10.234;2023-03-21T00:33:46;98342.16;;;7.77;72.09
66880;BME280;53789;51.392;10.234;2023-03-21T00:34:07;98344.91;;;7.77;71.38
66880;BME280;53789;51.392;10.234;2023-03-21T00:34:27;98338.63;;;7.76;71.32
66880;BME280;53789;51.392;10.234;2023-03-21T00:34:47;98335.88;;;7.76;71.86
66880;BME280;53789;51.392;10.234;2023-03-21T00:35:08;98337.50;;;7.77;72.40
66880;BME280;53789;51.392;10.234;2023-03-21T00:35:28;98339.44;;;7.77;72.08
66880;BME280;53789;51.392;10.234;2023-03-21T00:35:50;98337.50;;;7.77;71.65
66880;BME280;53789;51.392;10.234;2023-03-21T00:36:11;98335.59;;;7.78;71.30
66880;BME280;53789;51.392;10.234;2023-03-21T00:36:31;98336.41;;;7.78;71.19
66880;BME280;53789;51.392;10.234;2023-03-21T00:36:52;98335.59;;;7.78;71.59
66880;BME280;53789;51.392;10.234;2023-03-21T00:37:12;98341.88;;;7.78;71.53
66880;BME280;53789;51.392;10.234;2023-03-21T00:37:32;98338.34;;;7.78;70.74
66880;BME280;53789;51.392;10.234;2023-03-21T00:37:52;98335.59;;;7.78;71.64
66880;BME280;53789;51.392;10.234;2023-03-21T00:38:13;98338.34;;;7.78;71.00
66880;BME280;53789;51.392;10.234;2023-03-21T00:38:35;98332.84;;;7.78;71.52
66880;BME280;53789;51.392;10.234;2023-03-21T00:38:55;98338.34;;;7.78;71.90
66880;BME280;53789;51.392;10.234;2023-03-21T00:39:16;98337.50;;;7.77;71.47
66880;BME280;53789;51.392;10.234;2023-03-21T00:39:36;98330.41;;;7.76;71.35
66880;BME280;53789;51.392;10.234;2023-03-21T00:39:56;98333.94;;;7.77;71.72
66880;BME280;53789;51.392;10.234;2023-03-21T00:40:17;98335.03;;;7.76;71.33
66880;BME280;53789;51.392;10.234;2023-03-21T00:40:37;98333.44;;;7.75;71.21
66880;BME280;53789;51.392;10.234;2023-03-21T00:40:58;98330.16;;;7.73;70.60
66880;BME280;53789;51.392;10.234;2023-03-21T00:41:18;98332.38;;;7.71;70.72
66880;BME280;53789;51.392;10.234;2023-03-21T00:41:38;98333.47;;;7.70;70.76
66880;BME280;53789;51.392;10.234;2023-03-21T00:41:59;98332.66;;;7.69;70.73
66880;BME280;53789;51.392;10.234;2023-03-21T00:42:19;98329.06;;;7.69;71.31
66880;BME280;53789;51.392;10.234;2023-03-21T00:42:39;98329.06;;;7.69;70.86
66880;BME280;53789;51.392;10.234;2023-03-21T00:43:00;98334.56;;;7.69;71.67
66880;BME280;53789;51.392;10.234;2023-03-21T00:43:20;98325.81;;;7.67;71.26
66880;BME280;53789;51.392;10.234;2023-03-21T00:43:40;98325.81;;;7.67;71.64
66880;BME280;53789;51.392;10.234;2023-03-21T00:44:01;98329.34;;;7.67;71.30
66880;BME280;53789;51.392;10.234;2023-03-21T00:44:21;98332.09;;;7.67;70.72
66880;BME280;53789;51.392;10.234;2023-03-21T00:44:42;98331.28;;;7.67;70.80
66880;BME280;53789;51.392;10.234;2023-03-21T00:45:03;98330.47;;;7.66;71.67
66880;BME280;53789;51.392;10.234;2023-03-21T00:45:24;98324.16;;;7.66;71.65
66880;BME280;53789;51.392;10.234;2023-03-21T00:45:45;98326.91;;;7.66;71.42
66880;BME280;53789;51.392;10.234;2023-03-21T00:46:05;98327.75;;;7.66;71.13
66880;BME280;53789;51.392;10.234;2023-03-21T00:46:26;98325.00;;;7.66;70.96
66880;BME280;53789;51.392;10.234;2023-03-21T00:46:46;98326.91;;;7.66;71.04
66880;BME280;53789;51.392;10.234;2023-03-21T00:47:06;98326.91;;;7.66;70.84
66880;BME280;53789;51.392;10.234;2023-03-21T00:47:26;98331.56;;;7.65;70.58
66880;BME280;53789;51.392;10.234;2023-03-21T00:47:47;98322.56;;;7.65;71.35
66880;BME280;53789;51.392;10.234;2023-03-21T00:48:07;98329.13;;;7.64;70.70
66880;BME280;53789;51.392;10.234;2023-03-21T00:48:28;98322.56;;;7.65;71.47
66880;BME280;53789;51.392;10.234;2023-03-21T00:48:48;98322.84;;;7.63;71.24
66880;BME280;53789;51.392;10.234;2023-03-21T00:49:08;98318.97;;;7.64;71.38
66880;BME280;53789;51.392;10.234;2023-03-21T00:49:29;98326.38;;;7.64;71.08
66880;BME280;53789;51.392;10.234;2023-03-21T00:49:49;98313.50;;;7.64;70.75
66880;BME280;53789;51.392;10.234;2023-03-21T00:50:10;98320.09;;;7.63;71.83
66880;BME280;53789;51.392;10.234;2023-03-21T00:50:30;98318.19;;;7.64;71.01
66880;BME280;53789;51.392;10.234;2023-03-21T00:50:53;98319.28;;;7.63;70.72
66880;BME280;53789;51.392;10.234;2023-03-21T00:51:19;98315.72;;;7.62;70.67
66880;BME280;53789;51.392;10.234;2023-03-21T00:51:40;98320.91;;;7.64;70.78
66880;BME280;53789;51.392;10.234;2023-03-21T00:52:03;98316.53;;;7.63;71.51
66880;BME280;53789;51.392;10.234;2023-03-21T00:52:24;98319.28;;;7.63;71.32
66880;BME280;53789;51.392;10.234;2023-03-21T00:52:44;98311.91;;;7.63;71.47
66880;BME280;53789;51.392;10.234;2023-03-21T00:53:05;98320.38;;;7.61;70.94
66880;BME280;53789;51.392;10.234;2023-03-21T00:53:27;98320.91;;;7.64;71.73
66880;BME280;53789;51.392;10.234;2023-03-21T00:53:47;98318.97;;;7.64;71.70
66880;BME280;53789;51.392;10.234;2023-03-21T00:54:10;98321.44;;;7.66;71.16
66880;BME280;53789;51.392;10.234;2023-03-21T00:54:32;98313.50;;;7.64;71.32
66880;BME280;53789;51.392;10.234;2023-03-21T00:54:53;98320.63;;;7.65;71.27
66880;BME280;53789;51.392;10.234;2023-03-21T00:55:16;98315.16;;;7.65;71.51
66880;BME280;53789;51.392;10.234;2023-03-21T00:55:37;98322.56;;;7.65;70.38
66880;BME280;53789;51.392;10.234;2023-03-21T00:55:57;98312.41;;;7.65;71.23
66880;BME280;53789;51.392;10.234;2023-03-21T00:56:17;98315.16;;;7.65;71.45
66880;BME280;53789;51.392;10.234;2023-03-21T00:56:38;98316.25;;;7.64;70.44
66880;BME280;53789;51.392;10.234;2023-03-21T00:56:58;98318.19;;;7.64;70.20
66880;BME280;53789;51.392;10.234;2023-03-21T00:57:19;98316.53;;;7.63;70.08
66880;BME280;53789;51.392;10.234;2023-03-21T00:57:39;98313.78;;;7.63;70.73
66880;BME280;53789;51.392;10.234;2023-03-21T00:57:59;98316.53;;;7.63;71.08
66880;BME280;53789;51.392;10.234;2023-03-21T00:58:19;98313.00;;;7.62;70.92
66880;BME280;53789;51.392;10.234;2023-03-21T00:58:40;98317.63;;;7.61;70.51
66880;BME280;53789;51.392;10.234;2023-03-21T00:59:00;98312.16;;;7.61;70.79
66880;BME280;53789;51.392;10.234;2023-03-21T00:59:20;98312.44;;;7.60;70.75
66880;BME280;53789;51.392;10.234;2023-03-21T00:59:40;98313.28;;;7.60;70.67
66880;BME280;53789;51.392;10.234;2023-03-21T01:00:01;98323.09;;;7.61;71.31
66880;BME280;53789;51.392;10.234;2023-03-21T01:00:21;98317.09;;;7.59;71.41
66880;BME280;53789;51.392;10.234;2023-03-21T01:00:42;98311.63;;;7.59;71.61
66880;BME280;53789;51.392;10.234;2023-03-21T01:01:02;98311.63;;;7.59;71.57
66880;BME280;53789;51.392;10.234;2023-03-21T01:01:23;98313.56;;;7.59;71.13
66880;BME280;53789;51.392;10.234;2023-03-21T01:01:43;98306.16;;;7.59;70.75
66880;BME280;53789;51.392;10.234;2023-03-21T01:02:04;98309.97;;;7.58;71.63
66880;BME280;53789;51.392;10.234;2023-03-21T01:02:24;98312.44;;;7.60;71.02
66880;BME280;53789;51.392;10.234;2023-03-21T01:02:45;98310.81;;;7.59;71.21
66880;BME280;53789;51.392;10.234;2023-03-21T01:03:07;98312.72;;;7.58;71.08
66880;BME280;53789;51.392;10.234;2023-03-21T01:03:29;98318.19;;;7.58;70.84
66880;BME280;53789;51.392;10.234;2023-03-21T01:03:49;98314.66;;;7.58;70.90
66880;BME280;53789;51.392;10.234;2023-03-21T01:04:09;98309.97;;;7.58;70.68
66880;BME280;53789;51.392;10.234;2023-03-21T01:04:30;98313.84;;;7.57;71.15
66880;BME280;53789;51.392;10.234;2023-03-21T01:04:50;98322.06;;;7.57;71.22
66880;BME280;53789;51.392;10.234;2023-03-21T01:05:10;98310.28;;;7.57;71.77
66880;BME280;53789;51.392;10.234;2023-03-21T01:05:33;98308.66;;;7.56;71.16
66880;BME280;53789;51.392;10.234;2023-03-21T01:05:54;98310.56;;;7.55;71.51
66880;BME280;53789;51.392;10.234;2023-03-21T01:06:14;98306.22;;;7.54;71.85
66880;BME280;53789;51.392;10.234;2023-03-21T01:06:37;98310.84;;;7.54;71.06
66880;BME280;53789;51.392;10.234;2023-03-21T01:06:57;98306.22;;;7.54;72.33
66880;BME280;53789;51.392;10.234;2023-03-21T01:07:18;98310.84;;;7.54;71.45
66880;BME280;53789;51.392;10.234;2023-03-21T01:07:38;98308.09;;;7.54;72.02
66880;BME280;53789;51.392;10.234;2023-03-21T01:07:58;98312.78;;;7.53;72.50
66880;BME280;53789;51.392;10.234;2023-03-21T01:08:20;98309.22;;;7.53;71.84
66880;BME280;53789;51.392;10.234;2023-03-21T01:08:42;98309.53;;;7.51;72.52
66880;BME280;53789;51.392;10.234;2023-03-21T01:09:02;98306.22;;;7.49;71.69
66880;BME280;53789;51.392;10.234;2023-03-21T01:09:23;98308.16;;;7.49;72.09
66880;BME280;53789;51.392;10.234;2023-03-21T01:09:43;98304.06;;;7.46;72.37
66880;BME280;53789;51.392;10.234;2023-03-21T01:10:04;98313.91;;;7.47;71.95
66880;BME280;53789;51.392;10.234;2023-03-21T01:10:24;98306.28;;;7.44;72.59
66880;BME280;53789;51.392;10.234;2023-03-21T01:10:46;98307.91;;;7.45;72.44
66880;BME280;53789;51.392;10.234;2023-03-21T01:11:13;98299.94;;;7.43;72.88
66880;BME280;53789;51.392;10.234;2023-03-21T01:11:34;98309.00;;;7.44;72.72
66880;BME280;53789;51.392;10.234;2023-03-21T01:11:54;98301.06;;;7.42;72.01
66880;BME280;53789;51.392;10.234;2023-03-21T01:12:15;98305.69;;;7.42;71.77
66880;BME280;53789;51.392;10.234;2023-03-21T01:12:35;98304.88;;;7.41;73.01
66880;BME280;53789;51.392;10.234;2023-03-21T01:12:55;98304.88;;;7.41;72.76
66880;BME280;53789;51.392;10.234;2023-03-21T01:13:18;98309.56;;;7.41;72.94
66880;BME280;53789;51.392;10.234;2023-03-21T01:13:39;98305.97;;;7.40;72.88
66880;BME280;53789;51.392;10.234;2023-03-21T01:13:59;98313.09;;;7.41;73.32
66880;BME280;53789;51.392;10.234;2023-03-21T01:14:22;98305.97;;;7.40;73.43
66880;BME280;53789;51.392;10.234;2023-03-21T01:14:42;98312.56;;;7.39;73.51
66880;BME280;53789;51.392;10.234;2023-03-21T01:15:02;98304.38;;;7.39;73.15
66880;BME280;53789;51.392;10.234;2023-03-21T01:15:23;98302.44;;;7.40;72.79
66880;BME280;53789;51.392;10.234;2023-03-21T01:15:49;98304.63;;;7.38;72.68
66880;BME280;53789;51.392;10.234;2023-03-21T01:16:10;98299.44;;;7.36;73.05
66880;BME280;53789;51.392;10.234;2023-03-21T01:16:30;98310.09;;;7.38;72.57
66880;BME280;53789;51.392;10.234;2023-03-21T01:16:51;98301.38;;;7.36;72.31
66880;BME280;53789;51.392;10.234;2023-03-21T01:17:12;98305.75;;;7.37;72.90
66880;BME280;53789;51.392;10.234;2023-03-21T01:17:32;98301.06;;;7.37;72.64
66880;BME280;53789;51.392;10.234;2023-03-21T01:17:53;98306.03;;;7.35;72.56
66880;BME280;53789;51.392;10.234;2023-03-21T01:18:16;98310.66;;;7.35;73.36
66880;BME280;53789;51.392;10.234;2023-03-21T01:18:38;98302.75;;;7.33;73.05
66880;BME280;53789;51.392;10.234;2023-03-21T01:18:59;98313.69;;;7.33;72.23
66880;BME280;53789;51.392;10.234;2023-03-21T01:19:23;98304.66;;;7.33;73.16
66880;BME280;53789;51.392;10.234;2023-03-21T01:19:43;98304.38;;;7.34;72.68
66880;BME280;53789;51.392;10.234;2023-03-21T01:20:04;98302.75;;;7.33;72.85
66880;BME280;53789;51.392;10.234;2023-03-21T01:20:24;98300.84;;;7.34;72.81
66880;BME280;53789;51.392;10.234;2023-03-21T01:20:45;98307.13;;;7.34;72.61
66880;BME280;53789;51.392;10.234;2023-03-21T01:21:08;98306.84;;;7.36;73.06
66880;BME280;53789;51.392;10.234;2023-03-21T01:21:28;98302.72;;;7.38;72.22
66880;BME280;53789;51.392;10.234;2023-03-21T01:21:49;98303.00;;;7.37;71.96
66880;BME280;53789;51.392;10.234;2023-03-21T01:22:09;98298.63;;;7.36;72.75
66880;BME280;53789;51.392;10.234;2023-03-21T01:22:29;98302.47;;;7.35;72.27
66880;BME280;53789;51.392;10.234;2023-03-21T01:22:50;98301.38;;;7.36;72.10
66880;BME280;53789;51.392;10.234;2023-03-21T01:23:11;98311.22;;;7.37;72.44
66880;BME280;53789;51.392;10.234;2023-03-21T01:23:32;98305.75;;;7.37;71.70
66880;BME280;53789;51.392;10.234;2023-03-21T01:23:53;98301.06;;;7.37;72.11
66880;BME280;53789;51.392;10.234;2023-03-21T01:24:14;98302.72;;;7.38;72.35
66880;BME280;53789;51.392;10.234;2023-03-21T01:24:34;98305.47;;;7.38;72.10
66880;BME280;53789;51.392;10.234;2023-03-21T01:24:55;98300.00;;;7.38;72.74
66880;BME280;53789;51.392;10.234;2023-03-21T01:25:15;98301.63;;;7.39;72.14
66880;BME280;53789;51.392;10.234;2023-03-21T01:25:35;98300.00;;;7.38;72.25
66880;BME280;53789;51.392;10.234;2023-03-21T01:25:56;98301.63;;;7.39;71.76
66880;BME280;53789;51.392;10.234;2023-03-21T01:26:16;98303.53;;;7.39;72.29
66880;BME280;53789;51.392;10.234;2023-03-21T01:26:37;98298.91;;;7.39;71.65
66880;BME280;53789;51.392;10.234;2023-03-21T01:26:57;98302.44;;;7.40;72.19
66880;BME280;53789;51.392;10.234;2023-03-21T01:27:17;98300.78;;;7.39;72.45
66880;BME280;53789;51.392;10.234;2023-03-21T01:27:38;98301.06;;;7.37;72.02
66880;BME280;53789;51.392;10.234;2023-03-21T01:27:58;98297.81;;;7.35;72.52
66880;BME280;53789;51.392;10.234;2023-03-21T01:28:19;98305.19;;;7.35;71.47
66880;BME280;53789;51.392;10.234;2023-03-21T01:28:41;98303.81;;;7.37;72.05
66880;BME280;53789;51.392;10.234;2023-03-21T01:29:03;98302.16;;;7.36;72.12
66880;BME280;53789;51.392;10.234;2023-03-21T01:29:23;98297.25;;;7.38;72.10
66880;BME280;53789;51.392;10.234;2023-03-21T01:29:44;98299.16;;;7.38;71.51
66880;BME280;53789;51.392;10.234;2023-03-21T01:30:04;98298.91;;;7.39;71.85
66880;BME280;53789;51.392;10.234;2023-03-21T01:30:25;98301.88;;;7.38;72.08
66880;BME280;53789;51.392;10.234;2023-03-21T01:30:48;98299.16;;;7.38;72.31
66880;BME280;53789;51.392;10.234;2023-03-21T01:31:12;98302.72;;;7.38;72.11
66880;BME280;53789;51.392;10.234;2023-03-21T01:31:33;98302.72;;;7.38;71.32
66880;BME280;53789;51.392;10.234;2023-03-21T01:31:53;98297.53;;;7.37;72.18
66880;BME280;53789;51.392;10.234;2023-03-21T01:32:13;98297.25;;;7.38;71.22
66880;BME280;53789;51.392;10.234;2023-03-21T01:32:33;98299.16;;;7.38;71.12
66880;BME280;53789;51.392;10.234;2023-03-21T01:32:54;98305.47;;;7.38;71.12
66880;BME280;53789;51.392;10.234;2023-03-21T01:33:14;98295.88;;;7.36;71.35
66880;BME280;53789;51.392;10.234;2023-03-21T01:33:35;98298.91;;;7.34;71.51
66880;BME280;53789;51.392;10.234;2023-03-21T01:33:55;98297.28;;;7.33;72.00
66880;BME280;53789;51.392;10.234;2023-03-21T01:34:16;98303.56;;;7.34;71.78
66880;BME280;53789;51.392;10.234;2023-03-21T01:34:36;98302.75;;;7.33;71.23
66880;BME280;53789;51.392;10.234;2023-03-21T01:34:56;98303.56;;;7.34;72.20
66880;BME280;53789;51.392;10.234;2023-03-21T01:35:17;98297.56;;;7.32;71.41
66880;BME280;53789;51.392;10.234;2023-03-21T01:35:37;98297.28;;;7.33;71.61
66880;BME280;53789;51.392;10.234;2023-03-21T01:35:58;98290.19;;;7.32;71.11
66880;BME280;53789;51.392;10.234;2023-03-21T01:36:21;98298.09;;;7.34;71.59
66880;BME280;53789;51.392;10.234;2023-03-21T01:36:42;98294.53;;;7.33;71.37
66880;BME280;53789;51.392;10.234;2023-03-21T01:37:02;98292.91;;;7.32;71.46
66880;BME280;53789;51.392;10.234;2023-03-21T01:37:23;98294.53;;;7.33;72.26
66880;BME280;53789;51.392;10.234;2023-03-21T01:37:43;98300.84;;;7.34;71.89
66880;BME280;53789;51.392;10.234;2023-03-21T01:38:03;98297.28;;;7.33;72.51
66880;BME280;53789;51.392;10.234;2023-03-21T01:38:24;98302.47;;;7.35;71.74
66880;BME280;53789;51.392;10.234;2023-03-21T01:38:45;98294.25;;;7.35;72.38
66880;BME280;53789;51.392;10.234;2023-03-21T01:39:05;98287.69;;;7.36;71.99
66880;BME280;53789;51.392;10.234;2023-03-21T01:39:26;98297.53;;;7.37;71.65
66880;BME280;53789;51.392;10.234;2023-03-21T01:39:46;98301.88;;;7.38;72.11
66880;BME280;53789;51.392;10.234;2023-03-21T01:40:07;98298.91;;;7.39;72.19
66880;BME280;53789;51.392;10.234;2023-03-21T01:40:29;98298.06;;;7.39;72.10
66880;BME280;53789;51.392;10.234;2023-03-21T01:40:50;98299.16;;;7.38;71.99
66880;BME280;53789;51.392;10.234;2023-03-21T01:41:38;98294.50;;;7.38;70.85
66880;BME280;53789;51.392;10.234;2023-03-21T01:41:59;98303.53;;;7.39;71.39
66880;BME280;53789;51.392;10.234;2023-03-21T01:42:19;98296.97;;;7.40;72.03
66880;BME280;53789;51.392;10.234;2023-03-21T01:42:39;98296.97;;;7.40;72.28
66880;BME280;53789;51.392;10.234;2023-03-21T01:43:00;98300.50;;;7.40;71.71
66880;BME280;53789;51.392;10.234;2023-03-21T01:43:29;98298.59;;;7.41;71.35
66880;BME280;53789;51.392;10.234;2023-03-21T01:43:50;98297.50;;;7.42;71.77
66880;BME280;53789;51.392;10.234;2023-03-21T01:44:17;98299.94;;;7.43;71.46
66880;BME280;53789;51.392;10.234;2023-03-21T01:46:25;98300.81;;;7.44;71.50
66880;BME280;53789;51.392;10.234;2023-03-21T01:46:51;98298.88;;;7.44;70.80
66880;BME280;53789;51.392;10.234;2023-03-21T01:47:11;98296.94;;;7.45;70.55
66880;BME280;53789;51.392;10.234;2023-03-21T01:47:31;98298.59;;;7.46;71.29
66880;BME280;53789;51.392;10.234;2023-03-21T01:47:52;98291.47;;;7.45;71.03
66880;BME280;53789;51.392;10.234;2023-03-21T01:48:13;98306.00;;;7.46;71.41
66880;BME280;53789;51.392;10.234;2023-03-21T01:48:41;98297.78;;;7.46;70.64
66880;BME280;53789;51.392;10.234;2023-03-21T01:49:22;98298.06;;;7.44;70.55
66880;BME280;53789;51.392;10.234;2023-03-21T01:49:46;98298.59;;;7.46;71.29
66880;BME280;53789;51.392;10.234;2023-03-21T01:50:08;98301.31;;;7.46;71.14
66880;BME280;53789;51.392;10.234;2023-03-21T01:50:28;98301.31;;;7.46;71.52
66880;BME280;53789;51.392;10.234;2023-03-21T01:50:50;98293.13;;;7.46;71.29
66880;BME280;53789;51.392;10.234;2023-03-21T01:51:12;98298.59;;;7.46;70.81
66880;BME280;53789;51.392;10.234;2023-03-21T01:51:37;98297.50;;;7.47;71.37
66880;BME280;53789;51.392;10.234;2023-03-21T01:52:03;98289.28;;;7.47;71.42
66880;BME280;53789;51.392;10.234;2023-03-21T01:52:36;98293.63;;;7.48;70.65
66880;BME280;53789;51.392;10.234;2023-03-21T01:52:58;98293.63;;;7.48;71.31
66880;BME280;53789;51.392;10.234;2023-03-21T01:53:21;98299.94;;;7.49;70.48
66880;BME280;53789;51.392;10.234;2023-03-21T01:53:44;98298.03;;;7.49;70.77